Time;durP1;ratioP1;P1;durP2;ratioP2;P2;SDS_P1;SDS_P2;PMS_P1;PMS_P2;Temp;Humidity;BMP_temperature;BMP_pressure;BME280_temperature;BME280_humidity;BME280_pressure;Samples;Min_cycle;Max_cycle;Signal;HPM_P1;HPM_P2
2022/01/25 00:09:18;;;;;;;24.60;18.13;;;5.80;99.90;;;;;;2092884;28;20097;-71
2022/01/25 00:25:04;;;;;;;21.45;16.42;;;5.70;99.90;;;;;;2089401;28;20028;-71
2022/01/25 00:26:24;;;;;;;20.42;15.85;;;5.70;99.90;;;;;;2091409;28;20044;-71
2022/01/25 00:27:39;;;;;;;21.58;16.02;;;5.70;99.90;;;;;;2081463;28;20048;-72
2022/01/25 00:28:45;;;;;;;23.83;16.33;;;5.70;99.90;;;;;;2077031;28;20029;-71
2022/01/25 00:31:01;;;;;;;21.42;16.25;;;5.70;99.90;;;;;;2098058;28;20040;-71
2022/01/25 00:32:03;;;;;;;22.58;17.17;;;5.70;99.90;;;;;;2088610;28;20143;-71
2022/01/25 00:33:03;;;;;;;21.58;16.95;;;5.70;99.90;;;;;;2080917;28;20567;-71
2022/01/25 00:34:04;;;;;;;21.30;16.38;;;5.60;99.90;;;;;;2088686;28;20033;-71
2022/01/25 00:35:05;;;;;;;24.55;17.05;;;5.70;99.90;;;;;;2096301;28;20056;-71
2022/01/25 00:36:08;;;;;;;25.13;17.63;;;5.60;99.90;;;;;;2097484;28;20119;-71
2022/01/25 00:37:09;;;;;;;22.02;17.08;;;5.60;99.90;;;;;;2097761;28;20052;-70
2022/01/25 00:38:09;;;;;;;22.70;17.50;;;5.60;99.90;;;;;;2089101;28;20090;-71
2022/01/25 00:39:10;;;;;;;23.48;18.05;;;5.60;99.90;;;;;;2088972;28;20100;-71
2022/01/25 00:40:11;;;;;;;23.58;17.73;;;5.60;99.90;;;;;;2089214;28;20769;-72
2022/01/25 00:41:12;;;;;;;22.98;17.67;;;5.60;99.90;;;;;;2090031;28;20025;-72
2022/01/25 00:42:13;;;;;;;25.73;18.58;;;5.60;99.90;;;;;;2081370;28;20025;-72
2022/01/25 00:43:14;;;;;;;23.83;18.17;;;5.60;99.90;;;;;;2081497;28;20055;-71
2022/01/25 00:44:16;;;;;;;25.23;18.42;;;5.60;99.90;;;;;;2089307;28;20551;-72
2022/01/25 00:45:19;;;;;;;25.95;19.08;;;5.60;99.90;;;;;;2088842;28;20404;-72
2022/01/25 00:46:21;;;;;;;23.95;17.48;;;5.60;99.90;;;;;;2098845;28;20024;-72
2022/01/25 00:47:24;;;;;;;25.10;18.33;;;5.60;99.90;;;;;;2095152;28;20532;-71
2022/01/25 00:49:02;;;;;;;26.30;18.80;;;5.60;99.90;;;;;;2084980;28;20024;-73
2022/01/25 00:49:53;;;;;;;23.58;18.13;;;5.60;99.90;;;;;;2090700;28;20822;-70
2022/01/25 00:51:03;;;;;;;25.33;18.70;;;5.60;99.90;;;;;;2089162;28;20094;-72
2022/01/25 00:52:23;;;;;;;25.67;18.85;;;5.60;99.90;;;;;;2090022;28;20053;-71
2022/01/25 00:54:43;;;;;;;27.73;19.38;;;5.60;99.90;;;;;;2097695;28;20032;-71
2022/01/25 00:55:44;;;;;;;27.73;19.80;;;5.60;99.90;;;;;;2097335;28;20068;-70
2022/01/25 00:56:49;;;;;;;26.55;18.73;;;5.50;99.90;;;;;;2098076;28;20032;-73
2022/01/25 00:57:49;;;;;;;25.83;18.70;;;5.50;99.90;;;;;;2097942;28;20028;-72
2022/01/25 00:58:51;;;;;;;25.90;18.80;;;5.50;99.90;;;;;;2095887;28;20491;-72
2022/01/25 00:59:52;;;;;;;26.90;19.02;;;5.50;99.90;;;;;;2084024;28;20045;-71
2022/01/25 01:00:53;;;;;;;29.80;20.50;;;5.50;99.90;;;;;;2084234;28;20049;-71
2022/01/25 01:02:01;;;;;;;26.70;19.33;;;5.50;99.90;;;;;;2081783;28;20030;-71
2022/01/25 01:03:02;;;;;;;29.83;20.70;;;5.50;99.90;;;;;;2073998;28;20537;-71
2022/01/25 01:04:04;;;;;;;27.67;20.25;;;5.50;99.90;;;;;;2079949;28;20029;-71
2022/01/25 01:05:09;;;;;;;29.60;21.08;;;5.50;99.90;;;;;;2089287;28;20036;-72
2022/01/25 01:06:09;;;;;;;29.58;21.10;;;5.50;99.90;;;;;;2080860;28;20532;-71
2022/01/25 01:07:14;;;;;;;29.02;21.00;;;5.50;99.90;;;;;;2090092;28;20059;-72
2022/01/25 01:08:15;;;;;;;26.85;19.95;;;5.50;99.90;;;;;;2074560;28;20029;-71
2022/01/25 01:09:20;;;;;;;30.80;21.25;;;5.50;99.90;;;;;;2071969;28;20033;-70
2022/01/25 01:10:23;;;;;;;29.92;20.60;;;5.50;99.90;;;;;;2084714;28;20014;-71
2022/01/25 01:11:33;;;;;;;28.95;20.45;;;5.50;99.90;;;;;;2081090;28;20044;-73
2022/01/25 01:16:31;;;;;;;31.38;21.88;;;5.40;99.90;;;;;;2089230;28;20075;-71
2022/01/25 01:31:33;;;;;;;29.77;21.33;;;5.20;99.90;;;;;;2087542;28;20033;-71
2022/01/25 01:33:19;;;;;;;31.98;21.50;;;5.20;99.90;;;;;;2085983;28;20056;-71
2022/01/25 01:40:36;;;;;;;32.63;21.50;;;5.10;99.90;;;;;;2075680;28;20034;-70
2022/01/25 01:41:53;;;;;;;33.95;21.00;;;5.10;99.90;;;;;;2065826;28;20286;-71
2022/01/25 01:43:05;;;;;;;31.67;20.95;;;5.10;99.90;;;;;;2083849;28;20056;-70
2022/01/25 01:44:10;;;;;;;29.10;19.70;;;5.10;99.90;;;;;;2073731;28;20505;-71
2022/01/25 01:45:31;;;;;;;28.20;19.25;;;5.10;99.90;;;;;;2081947;28;20809;-70
2022/01/25 01:46:41;;;;;;;;;;;5.20;99.90;;;;;;2094686;28;20040;-71
2022/01/25 01:47:48;;;;;;;29.55;19.42;;;5.20;99.90;;;;;;2096412;28;19909;-70
2022/01/25 01:48:59;;;;;;;29.65;19.33;;;5.20;99.90;;;;;;2098005;28;20024;-70
2022/01/25 01:50:01;;;;;;;;;;;5.20;99.90;;;;;;2090495;28;20013;-70
2022/01/25 01:51:18;;;;;;;30.65;19.55;;;5.20;99.90;;;;;;2080869;28;19905;-71
2022/01/25 01:52:19;;;;;;;29.63;20.15;;;5.20;99.90;;;;;;2086271;28;20081;-70
2022/01/25 01:53:19;;;;;;;29.10;19.23;;;5.20;99.90;;;;;;2087897;28;20028;-70
2022/01/25 01:54:20;;;;;;;27.27;18.92;;;5.30;99.90;;;;;;2089265;28;20032;-70
2022/01/25 01:55:21;;;;;;;29.40;19.80;;;5.20;99.90;;;;;;2097223;28;20033;-71
2022/01/25 01:56:22;;;;;;;29.85;20.08;;;5.30;99.90;;;;;;2089040;28;20040;-71
2022/01/25 01:57:23;;;;;;;29.88;19.25;;;5.30;99.90;;;;;;2089063;28;20029;-70
2022/01/25 01:58:24;;;;;;;27.30;19.05;;;5.20;99.90;;;;;;2090367;28;20029;-71
2022/01/25 01:59:25;;;;;;;27.67;19.15;;;5.30;99.90;;;;;;2080670;28;20025;-70
2022/01/25 02:00:37;;;;;;;29.98;19.70;;;5.30;99.90;;;;;;2084039;28;20044;-71
2022/01/25 02:01:41;;;;;;;29.15;20.05;;;5.30;99.90;;;;;;2095662;28;20031;-71
2022/01/25 02:02:41;;;;;;;28.75;20.08;;;5.30;99.90;;;;;;2097996;28;20088;-70
2022/01/25 02:03:42;;;;;;;30.38;20.23;;;5.30;99.90;;;;;;2096645;28;20036;-71
2022/01/25 02:04:44;;;;;;;30.45;20.25;;;5.30;99.90;;;;;;2087452;28;20032;-72
2022/01/25 02:05:45;;;;;;;30.73;21.00;;;5.30;99.90;;;;;;2082752;28;20029;-71
2022/01/25 02:06:45;;;;;;;31.83;20.35;;;5.30;99.90;;;;;;2095395;28;20502;-71
2022/01/25 02:07:46;;;;;;;31.02;21.20;;;5.30;99.90;;;;;;2097466;28;20507;-71
2022/01/25 02:08:47;;;;;;;30.88;20.75;;;5.30;99.90;;;;;;2080626;28;20075;-71
2022/01/25 02:09:47;;;;;;;30.38;20.50;;;5.30;99.90;;;;;;2080517;28;20115;-70
2022/01/25 02:10:48;;;;;;;32.00;21.13;;;5.30;99.90;;;;;;2081575;28;20025;-71
2022/01/25 02:11:49;;;;;;;31.88;21.00;;;5.40;99.90;;;;;;2086614;28;20480;-71
2022/01/25 02:12:52;;;;;;;31.35;20.20;;;5.40;99.90;;;;;;2080654;28;20018;-70
2022/01/25 02:13:53;;;;;;;30.30;19.60;;;5.40;99.90;;;;;;2081113;28;20104;-71
2022/01/25 02:14:55;;;;;;;29.48;20.38;;;5.40;99.90;;;;;;2097873;28;20020;-70
2022/01/25 02:15:58;;;;;;;29.92;19.80;;;5.40;99.90;;;;;;2096110;28;20028;-71
2022/01/25 02:17:08;;;;;;;27.63;19.17;;;5.40;99.90;;;;;;2098626;28;20028;-71
2022/01/25 02:23:25;;;;;;;28.65;19.10;;;5.40;99.90;;;;;;2091034;28;20029;-70
2022/01/25 02:24:29;;;;;;;31.08;20.30;;;5.40;99.90;;;;;;2088813;28;20029;-70
2022/01/25 02:25:30;;;;;;;29.60;19.40;;;5.40;99.90;;;;;;2088384;28;20042;-70
2022/01/25 02:26:31;;;;;;;32.25;20.88;;;5.40;99.90;;;;;;2097645;28;20395;-70
2022/01/25 02:27:32;;;;;;;30.40;20.42;;;5.40;99.90;;;;;;2080209;28;20035;-70
2022/01/25 02:28:37;;;;;;;32.78;20.77;;;5.40;99.90;;;;;;2081797;28;20025;-70
2022/01/25 02:29:39;;;;;;;31.38;20.75;;;5.40;99.90;;;;;;2088487;28;20021;-71
2022/01/25 02:30:41;;;;;;;31.58;20.73;;;5.40;99.90;;;;;;2089019;28;20455;-70
2022/01/25 02:31:41;;;;;;;30.50;20.33;;;5.40;99.90;;;;;;2088348;28;20021;-71
2022/01/25 02:32:42;;;;;;;30.33;20.05;;;5.50;99.90;;;;;;2080491;28;20508;-70
2022/01/25 02:33:43;;;;;;;35.60;22.45;;;5.40;99.90;;;;;;2086191;28;20017;-70
2022/01/25 02:34:45;;;;;;;34.63;22.65;;;5.40;99.90;;;;;;2087333;28;20013;-70
2022/01/25 02:35:46;;;;;;;34.33;22.10;;;5.40;99.90;;;;;;2086830;28;20147;-70
2022/01/25 02:37:02;;;;;;;37.13;23.10;;;5.40;99.90;;;;;;2089766;28;20032;-70
2022/01/25 02:38:03;;;;;;;33.85;21.52;;;5.30;99.90;;;;;;2090510;28;20032;-71
2022/01/25 02:39:04;;;;;;;35.28;21.58;;;5.30;99.90;;;;;;2080533;28;20030;-70
2022/01/25 02:40:07;;;;;;;32.65;20.60;;;5.30;99.90;;;;;;2089032;28;20032;-70
2022/01/25 02:41:07;;;;;;;39.13;22.30;;;5.20;99.90;;;;;;2097466;28;20040;-71
2022/01/25 02:42:11;;;;;;;35.53;22.00;;;5.20;99.90;;;;;;2096774;28;20032;-70
2022/01/25 02:43:15;;;;;;;32.97;20.63;;;5.20;99.90;;;;;;2088318;28;20029;-71
2022/01/25 02:44:23;;;;;;;33.08;20.10;;;5.20;99.90;;;;;;2082973;28;20028;-71
2022/01/25 02:45:31;;;;;;;35.67;20.98;;;5.20;99.90;;;;;;2087058;28;20037;-70
2022/01/25 02:48:59;;;;;;;30.27;18.95;;;5.20;99.90;;;;;;2097765;28;20070;-71
2022/01/25 02:50:01;;;;;;;32.33;19.30;;;5.20;99.90;;;;;;2097136;28;20090;-71
2022/01/25 02:51:02;;;;;;;31.27;19.50;;;5.10;99.90;;;;;;2088595;28;20187;-70
2022/01/25 02:52:05;;;;;;;30.30;19.05;;;5.10;99.90;;;;;;2087532;28;20807;-70
2022/01/25 02:53:05;;;;;;;28.88;18.30;;;5.10;99.90;;;;;;2088684;28;20055;-70
2022/01/25 02:54:08;;;;;;;30.95;19.25;;;5.10;99.90;;;;;;2079320;28;20045;-70
2022/01/25 02:55:09;;;;;;;32.45;18.85;;;5.10;99.90;;;;;;2082491;28;20140;-70
2022/01/25 02:56:12;;;;;;;30.90;19.13;;;5.10;99.90;;;;;;2097036;28;20531;-70
2022/01/25 02:57:13;;;;;;;28.85;18.75;;;5.10;99.90;;;;;;2088474;28;20038;-71
2022/01/25 02:58:14;;;;;;;29.40;18.63;;;5.10;99.90;;;;;;2073761;28;20141;-71
2022/01/25 02:59:17;;;;;;;30.13;18.02;;;5.00;99.90;;;;;;2073790;28;20028;-71
2022/01/25 03:00:19;;;;;;;27.70;17.38;;;5.00;99.90;;;;;;2090570;28;20037;-70
2022/01/25 03:01:21;;;;;;;29.05;17.83;;;5.00;99.90;;;;;;2090245;28;20025;-70
2022/01/25 03:02:22;;;;;;;28.13;17.45;;;5.00;99.90;;;;;;2082116;28;20030;-71
2022/01/25 03:03:23;;;;;;;27.35;17.35;;;5.00;99.90;;;;;;2082915;28;20061;-71
2022/01/25 03:04:24;;;;;;;29.45;17.63;;;4.90;99.90;;;;;;2091513;28;20057;-72
2022/01/25 03:05:25;;;;;;;28.77;17.30;;;4.90;99.90;;;;;;2088423;28;20025;-71
2022/01/25 03:06:26;;;;;;;26.63;17.38;;;4.90;99.90;;;;;;2090240;28;20539;-71
2022/01/25 03:07:27;;;;;;;27.40;16.92;;;4.90;99.90;;;;;;2098869;28;20426;-71
2022/01/25 03:08:28;;;;;;;26.30;16.85;;;4.90;99.90;;;;;;2099013;28;20090;-71
2022/01/25 03:09:29;;;;;;;25.73;16.65;;;4.80;99.90;;;;;;2097324;28;20027;-71
2022/01/25 03:10:41;;;;;;;25.45;15.82;;;4.80;99.90;;;;;;2086864;28;20037;-71
2022/01/25 03:11:46;;;;;;;26.20;16.23;;;4.80;99.90;;;;;;2087358;28;20032;-70
2022/01/25 03:12:54;;;;;;;26.00;16.10;;;4.80;99.90;;;;;;2089776;28;20032;-71
2022/01/25 03:13:59;;;;;;;25.83;16.27;;;4.80;99.90;;;;;;2084129;28;20025;-71
2022/01/25 03:15:23;;;;;;;25.10;16.02;;;4.80;99.90;;;;;;2090654;28;20020;-72
2022/01/25 03:17:30;;;;;;;27.50;16.45;;;4.70;99.90;;;;;;2096137;28;20027;-72
2022/01/25 03:20:48;;;;;;;24.58;15.63;;;4.70;99.90;;;;;;2086763;28;20025;-72
2022/01/25 03:21:48;;;;;;;25.90;15.70;;;4.70;99.90;;;;;;2089898;28;20713;-72
2022/01/25 03:23:57;;;;;;;24.00;15.20;;;4.70;99.90;;;;;;2090201;28;20027;-72
2022/01/25 03:24:58;;;;;;;26.17;15.50;;;4.70;99.90;;;;;;2099843;28;20032;-72
2022/01/25 03:25:59;;;;;;;27.77;15.98;;;4.70;99.90;;;;;;2098931;28;20028;-72
2022/01/25 03:26:59;;;;;;;24.38;15.50;;;4.70;99.90;;;;;;2099886;28;20092;-72
2022/01/25 03:28:00;;;;;;;24.58;15.50;;;4.70;99.90;;;;;;2098252;28;20032;-71
2022/01/25 03:29:03;;;;;;;24.38;15.52;;;4.70;99.90;;;;;;2091421;28;20830;-72
2022/01/25 03:30:05;;;;;;;26.67;15.55;;;4.70;99.90;;;;;;2081681;28;20053;-71
2022/01/25 03:31:06;;;;;;;25.50;14.82;;;4.60;99.90;;;;;;2090995;28;20156;-72
2022/01/25 03:32:07;;;;;;;24.30;15.13;;;4.60;99.90;;;;;;2099142;28;20514;-71
2022/01/25 03:33:08;;;;;;;24.25;15.02;;;4.60;99.90;;;;;;2099708;28;20028;-71
2022/01/25 03:34:09;;;;;;;25.92;15.27;;;4.60;99.90;;;;;;2083961;28;20536;-72
2022/01/25 03:35:10;;;;;;;23.73;14.45;;;4.60;99.90;;;;;;2083184;28;20103;-71
2022/01/25 03:36:11;;;;;;;23.98;14.50;;;4.60;99.90;;;;;;2090748;28;20504;-72
2022/01/25 03:37:12;;;;;;;23.77;14.32;;;4.60;99.90;;;;;;2099593;28;20383;-72
2022/01/25 03:38:13;;;;;;;21.83;14.05;;;4.60;99.90;;;;;;2091476;28;20027;-72
2022/01/25 03:39:14;;;;;;;22.17;13.88;;;4.60;99.90;;;;;;2089565;28;20111;-71
2022/01/25 03:40:15;;;;;;;22.10;14.00;;;4.60;99.90;;;;;;2091716;28;20143;-71
2022/01/25 03:41:16;;;;;;;23.05;14.20;;;4.60;99.90;;;;;;2089012;28;20049;-71
2022/01/25 03:42:19;;;;;;;21.65;13.80;;;4.60;99.90;;;;;;2081728;28;20528;-71
2022/01/25 03:43:20;;;;;;;21.27;13.30;;;4.60;99.90;;;;;;2078640;28;20025;-71
2022/01/25 03:44:21;;;;;;;22.23;13.88;;;4.60;99.90;;;;;;2086699;28;20127;-71
2022/01/25 03:45:29;;;;;;;20.48;13.45;;;4.60;99.90;;;;;;2096356;28;20453;-71
2022/01/25 03:46:52;;;;;;;22.70;13.85;;;4.60;99.90;;;;;;2087082;28;20017;-71
2022/01/25 03:50:20;;;;;;;20.50;13.18;;;4.50;99.90;;;;;;2093447;28;20370;-71
2022/01/25 03:51:21;;;;;;;23.75;14.55;;;4.60;99.90;;;;;;2097585;28;20075;-72
2022/01/25 03:52:30;;;;;;;23.75;14.02;;;4.50;99.90;;;;;;2091189;28;20040;-71
2022/01/25 03:53:31;;;;;;;24.92;14.30;;;4.50;99.90;;;;;;2090071;28;20029;-71
2022/01/25 03:54:32;;;;;;;24.48;14.82;;;4.50;99.90;;;;;;2098987;28;20029;-73
2022/01/25 03:55:33;;;;;;;23.08;14.35;;;4.50;99.90;;;;;;2081491;28;20056;-72
2022/01/25 03:56:34;;;;;;;25.08;15.27;;;4.50;99.90;;;;;;2073513;28;20088;-71
2022/01/25 03:57:35;;;;;;;23.90;15.30;;;4.50;99.90;;;;;;2085822;28;20025;-71
2022/01/25 03:58:36;;;;;;;26.27;15.27;;;4.50;99.90;;;;;;2096576;28;20062;-71
2022/01/25 03:59:36;;;;;;;23.55;15.13;;;4.50;99.90;;;;;;2097319;28;20866;-71
2022/01/25 04:00:38;;;;;;;24.25;15.23;;;4.50;99.90;;;;;;2098392;28;20117;-71
2022/01/25 04:01:39;;;;;;;23.90;14.95;;;4.50;99.90;;;;;;2098510;28;20032;-71
2022/01/25 04:02:48;;;;;;;25.05;15.95;;;4.50;99.90;;;;;;2098510;28;20029;-71
2022/01/25 04:04:02;;;;;;;24.88;15.50;;;4.50;99.90;;;;;;2098940;28;20024;-72
2022/01/25 04:05:05;;;;;;;24.33;14.40;;;4.50;99.90;;;;;;2082962;28;20040;-72
2022/01/25 04:06:05;;;;;;;23.67;15.20;;;4.50;99.90;;;;;;2089107;28;20115;-72
2022/01/25 04:07:11;;;;;;;24.60;14.75;;;4.60;99.90;;;;;;2089073;28;20392;-72
2022/01/25 04:08:13;;;;;;;23.40;14.77;;;4.60;99.90;;;;;;2091796;28;20021;-71
2022/01/25 04:09:13;;;;;;;24.83;15.48;;;4.50;99.90;;;;;;2098284;28;20024;-71
2022/01/25 04:10:14;;;;;;;24.52;15.25;;;4.50;99.90;;;;;;2098730;28;20123;-71
2022/01/25 04:11:15;;;;;;;25.83;15.35;;;4.60;99.90;;;;;;2089595;28;20021;-71
2022/01/25 04:12:17;;;;;;;24.17;15.23;;;4.60;99.90;;;;;;2081056;28;20678;-71
2022/01/25 04:13:19;;;;;;;26.30;15.68;;;4.60;99.90;;;;;;2089795;28;20116;-71
2022/01/25 04:14:19;;;;;;;24.90;14.88;;;4.60;99.90;;;;;;2098195;28;20560;-71
2022/01/25 04:15:20;;;;;;;23.80;15.45;;;4.60;99.90;;;;;;2089644;28;20078;-72
2022/01/25 04:16:27;;;;;;;24.60;15.55;;;4.60;99.90;;;;;;2081536;28;20084;-71
2022/01/25 04:17:28;;;;;;;23.05;14.52;;;4.60;99.90;;;;;;2090704;28;20152;-71
2022/01/25 04:18:35;;;;;;;24.50;15.00;;;4.60;99.90;;;;;;2089679;28;20045;-71
2022/01/25 04:19:41;;;;;;;25.02;15.35;;;4.60;99.90;;;;;;2082612;28;20037;-72
2022/01/25 04:20:44;;;;;;;22.63;14.38;;;4.60;99.90;;;;;;2090692;28;20066;-72
2022/01/25 04:24:55;;;;;;;23.13;14.25;;;4.60;99.90;;;;;;2089909;28;20032;-71
2022/01/25 04:25:56;;;;;;;24.23;14.50;;;4.60;99.90;;;;;;2093813;28;20029;-72
2022/01/25 04:26:58;;;;;;;24.33;15.15;;;4.60;99.90;;;;;;2081121;28;20029;-71
2022/01/25 04:27:58;;;;;;;27.13;15.85;;;4.60;99.90;;;;;;2081444;28;20421;-72
2022/01/25 04:28:59;;;;;;;28.35;16.65;;;4.60;99.90;;;;;;2098221;28;20107;-71
2022/01/25 04:30:01;;;;;;;27.10;15.65;;;4.60;99.90;;;;;;2090163;28;20029;-71
2022/01/25 04:31:01;;;;;;;24.80;15.45;;;4.60;99.90;;;;;;2081999;28;20036;-72
2022/01/25 04:32:05;;;;;;;23.50;14.98;;;4.60;99.90;;;;;;2090086;28;20597;-71
2022/01/25 04:33:17;;;;;;;24.88;15.02;;;4.50;99.90;;;;;;2099132;28;20044;-71
2022/01/25 04:36:40;;;;;;;23.60;14.68;;;4.50;99.90;;;;;;2098317;28;20040;-72
2022/01/25 04:49:37;;;;;;;24.15;14.55;;;4.70;99.90;;;;;;2091978;28;20036;-71
2022/01/25 04:53:17;;;;;;;26.33;15.60;;;4.70;99.90;;;;;;2098514;28;20103;-71
2022/01/25 04:55:30;;;;;;;25.02;15.23;;;4.60;99.90;;;;;;2089220;28;20041;-71
2022/01/25 04:56:50;;;;;;;27.33;15.88;;;4.60;99.90;;;;;;2097886;28;20068;-71
2022/01/25 04:58:01;;;;;;;26.00;14.95;;;4.60;99.90;;;;;;2097528;28;20043;-71
2022/01/25 04:59:16;;;;;;;26.40;16.10;;;4.70;99.90;;;;;;2088799;28;20140;-71
2022/01/25 05:00:21;;;;;;;27.52;15.73;;;4.70;99.90;;;;;;2089091;28;20033;-71
2022/01/25 05:01:21;;;;;;;27.80;16.77;;;4.70;99.90;;;;;;2089317;28;20025;-71
2022/01/25 05:04:01;;;;;;;25.15;15.50;;;4.60;99.90;;;;;;2060059;28;20034;-71
2022/01/25 05:05:15;;;;;;;25.33;15.15;;;4.60;99.90;;;;;;2084722;28;20100;-71
2022/01/25 05:06:17;;;;;;;26.83;15.68;;;4.60;99.90;;;;;;2088401;28;20123;-71
2022/01/25 05:08:57;;;;;;;27.75;16.25;;;4.70;99.90;;;;;;2063715;28;20034;-71
2022/01/25 05:09:59;;;;;;;26.50;15.88;;;4.70;99.90;;;;;;2064214;28;20037;-72
2022/01/25 05:11:06;;;;;;;27.75;16.55;;;4.70;99.90;;;;;;2069598;28;20497;-71
2022/01/25 05:12:09;;;;;;;27.00;16.02;;;4.60;99.90;;;;;;2097653;28;20024;-71
2022/01/25 05:13:20;;;;;;;28.75;17.10;;;4.60;99.90;;;;;;2088934;28;20021;-71
2022/01/25 05:14:24;;;;;;;27.33;16.45;;;4.70;99.90;;;;;;2090482;28;20033;-71
2022/01/25 05:15:59;;;;;;;27.00;16.65;;;4.70;99.90;;;;;;2097087;28;20039;-71
2022/01/25 05:16:51;;;;;;;29.63;17.02;;;4.70;99.90;;;;;;2088778;28;20783;-71
2022/01/25 05:18:12;;;;;;;28.48;16.98;;;4.70;99.90;;;;;;2089678;28;20056;-72
2022/01/25 05:22:56;;;;;;;30.48;17.73;;;4.70;99.90;;;;;;2097627;28;20089;-71
2022/01/25 05:23:57;;;;;;;31.25;18.85;;;4.70;99.90;;;;;;2097572;28;20075;-71
2022/01/25 05:24:58;;;;;;;30.48;18.85;;;4.70;99.90;;;;;;2088722;28;20036;-71
2022/01/25 05:25:58;;;;;;;31.42;18.45;;;4.70;99.90;;;;;;2088040;28;20492;-71
2022/01/25 05:26:59;;;;;;;28.95;17.30;;;4.70;99.90;;;;;;2088693;28;20029;-71
2022/01/25 05:28:00;;;;;;;26.55;16.88;;;4.70;99.90;;;;;;2088778;28;20032;-71
2022/01/25 05:29:00;;;;;;;26.73;16.40;;;4.70;99.90;;;;;;2097420;28;20029;-71
2022/01/25 05:30:01;;;;;;;26.55;16.60;;;4.70;99.90;;;;;;2088601;28;20032;-71
2022/01/25 05:31:02;;;;;;;29.63;17.55;;;4.80;99.90;;;;;;2088634;28;20031;-71
2022/01/25 05:32:03;;;;;;;28.58;17.58;;;4.80;99.90;;;;;;2097170;28;20048;-71
2022/01/25 05:33:04;;;;;;;30.70;18.90;;;4.80;99.90;;;;;;2088572;28;20508;-72
2022/01/25 05:34:08;;;;;;;32.15;19.00;;;4.80;99.90;;;;;;2088244;28;20070;-71
2022/01/25 05:35:09;;;;;;;33.00;19.67;;;4.70;99.90;;;;;;2096709;28;20029;-72
2022/01/25 05:36:10;;;;;;;34.25;19.67;;;4.70;99.90;;;;;;2096431;28;20123;-71
2022/01/25 05:37:11;;;;;;;33.22;19.55;;;4.70;99.90;;;;;;2097419;28;20507;-72
2022/01/25 05:38:11;;;;;;;32.33;19.77;;;4.70;99.90;;;;;;2097461;28;20022;-71
2022/01/25 05:39:20;;;;;;;32.85;19.67;;;4.70;99.90;;;;;;2097281;28;20029;-71
2022/01/25 05:40:39;;;;;;;33.85;20.08;;;4.60;99.90;;;;;;2088402;28;20122;-72
2022/01/25 05:41:41;;;;;;;36.30;20.20;;;4.60;99.90;;;;;;2090898;28;20068;-71
2022/01/25 05:43:57;;;;;;;34.13;20.02;;;4.60;99.90;;;;;;2089193;28;20107;-71
2022/01/25 05:45:39;;;;;;;32.92;19.83;;;4.60;99.90;;;;;;2074437;28;20045;-72
2022/01/25 05:46:47;;;;;;;34.80;19.98;;;4.60;99.90;;;;;;2082144;28;20025;-72
2022/01/25 05:47:48;;;;;;;35.88;20.35;;;4.60;99.90;;;;;;2080286;28;20037;-72
2022/01/25 05:48:48;;;;;;;33.42;19.45;;;4.60;99.90;;;;;;2080361;28;20033;-72
2022/01/25 05:49:49;;;;;;;36.22;20.30;;;4.60;99.90;;;;;;2089184;28;20472;-71
2022/01/25 05:50:50;;;;;;;33.53;19.58;;;4.50;99.90;;;;;;2089242;28;20495;-71
2022/01/25 05:51:51;;;;;;;34.90;20.00;;;4.50;99.90;;;;;;2088776;28;20033;-71
2022/01/25 05:52:52;;;;;;;36.05;20.77;;;4.50;99.90;;;;;;2088992;28;20053;-72
2022/01/25 05:53:52;;;;;;;34.60;20.40;;;4.50;99.90;;;;;;2088848;28;20173;-72
2022/01/25 05:54:53;;;;;;;36.38;20.73;;;4.50;99.90;;;;;;2080104;28;20414;-73
2022/01/25 05:55:55;;;;;;;36.45;20.63;;;4.50;99.90;;;;;;2079867;28;20105;-72
2022/01/25 05:56:56;;;;;;;35.53;20.60;;;4.50;99.90;;;;;;2080222;28;20037;-71
2022/01/25 05:57:56;;;;;;;36.65;20.80;;;4.50;99.90;;;;;;2080257;28;20128;-72
2022/01/25 05:58:57;;;;;;;36.47;20.50;;;4.50;99.90;;;;;;2088907;28;20045;-71
2022/01/25 05:59:57;;;;;;;36.33;21.35;;;4.50;99.90;;;;;;2089027;28;20067;-71
2022/01/25 06:01:01;;;;;;;36.40;20.83;;;4.50;99.90;;;;;;2073541;28;20030;-71
2022/01/25 06:02:02;;;;;;;37.05;20.50;;;4.50;99.90;;;;;;2080209;28;20056;-71
2022/01/25 06:03:05;;;;;;;37.50;20.48;;;4.50;99.90;;;;;;2096713;28;20845;-71
2022/01/25 06:04:07;;;;;;;38.45;20.35;;;4.50;99.90;;;;;;2096726;28;20453;-71
2022/01/25 06:05:07;;;;;;;35.97;20.20;;;4.50;99.90;;;;;;2097156;28;20032;-72
2022/01/25 06:06:08;;;;;;;33.70;19.90;;;4.50;99.90;;;;;;2087782;28;20400;-71
2022/01/25 06:07:09;;;;;;;34.53;20.08;;;4.40;99.90;;;;;;2080048;28;20025;-71
2022/01/25 06:08:09;;;;;;;36.60;20.73;;;4.40;99.90;;;;;;2088339;28;20506;-71
2022/01/25 06:09:10;;;;;;;35.67;19.73;;;4.40;99.90;;;;;;2096746;28;20051;-71
2022/01/25 06:10:10;;;;;;;37.35;20.88;;;4.40;99.90;;;;;;2088726;28;20021;-72
2022/01/25 06:11:11;;;;;;;35.25;19.95;;;4.40;99.90;;;;;;2088338;28;20738;-73
2022/01/25 06:12:12;;;;;;;36.47;19.70;;;4.40;99.90;;;;;;2088062;28;20543;-73
2022/01/25 06:13:12;;;;;;;37.60;20.90;;;4.40;99.90;;;;;;2097130;28;20387;-72
2022/01/25 06:14:13;;;;;;;33.65;19.58;;;4.50;99.90;;;;;;2097247;28;20025;-73
2022/01/25 06:15:14;;;;;;;32.75;19.23;;;4.50;99.90;;;;;;2097206;28;20027;-73
2022/01/25 06:16:14;;;;;;;32.08;19.02;;;4.50;99.90;;;;;;2096777;28;20031;-72
2022/01/25 06:17:15;;;;;;;32.55;19.02;;;4.50;99.90;;;;;;2097307;28;20028;-72
2022/01/25 06:18:15;;;;;;;34.33;19.98;;;4.50;99.90;;;;;;2097224;28;20123;-70
2022/01/25 06:19:16;;;;;;;32.97;19.27;;;4.50;99.90;;;;;;2097139;28;20047;-71
2022/01/25 06:20:17;;;;;;;32.63;18.90;;;4.50;99.90;;;;;;2096910;28;20016;-71
2022/01/25 06:21:18;;;;;;;33.25;19.25;;;4.50;99.90;;;;;;2097320;28;20535;-71
2022/01/25 06:22:18;;;;;;;33.85;19.48;;;4.50;99.90;;;;;;2088161;28;20033;-72
2022/01/25 06:23:19;;;;;;;33.13;18.88;;;4.50;99.90;;;;;;2088186;28;20048;-72
2022/01/25 06:24:19;;;;;;;32.65;19.00;;;4.50;99.90;;;;;;2097185;28;20035;-72
2022/01/25 06:25:20;;;;;;;32.05;19.35;;;4.50;99.90;;;;;;2097111;28;20086;-72
2022/01/25 06:26:22;;;;;;;30.98;18.63;;;4.50;99.90;;;;;;2088327;28;20102;-72
2022/01/25 06:27:22;;;;;;;30.90;19.45;;;4.50;99.90;;;;;;2088225;28;20033;-72
2022/01/25 06:28:23;;;;;;;32.35;19.20;;;4.50;99.90;;;;;;2096712;28;20030;-72
2022/01/25 06:29:23;;;;;;;32.50;19.50;;;4.50;99.90;;;;;;2097011;28;20032;-72
2022/01/25 06:30:24;;;;;;;31.38;18.55;;;4.50;99.90;;;;;;2093783;28;20017;-72
2022/01/25 06:31:27;;;;;;;30.27;17.35;;;4.50;99.90;;;;;;2088580;28;20044;-71
2022/01/25 06:32:27;;;;;;;30.85;17.42;;;4.50;99.90;;;;;;2081481;28;20112;-71
2022/01/25 06:33:28;;;;;;;31.15;18.52;;;4.50;99.90;;;;;;2088228;28;20024;-71
2022/01/25 06:34:29;;;;;;;29.90;17.30;;;4.50;99.90;;;;;;2093444;28;20036;-71
2022/01/25 06:35:31;;;;;;;31.30;17.75;;;4.50;99.90;;;;;;2075030;28;20021;-71
2022/01/25 06:36:32;;;;;;;29.17;17.88;;;4.50;99.90;;;;;;2080526;28;20025;-71
2022/01/25 06:37:33;;;;;;;31.52;18.20;;;4.50;99.90;;;;;;2088427;28;20119;-72
2022/01/25 06:38:34;;;;;;;31.23;18.25;;;4.50;99.90;;;;;;2080490;28;20026;-72
2022/01/25 06:39:34;;;;;;;32.88;18.60;;;4.50;99.90;;;;;;2089308;28;20059;-71
2022/01/25 06:40:35;;;;;;;30.42;18.05;;;4.50;99.90;;;;;;2093830;28;20476;-72
2022/01/25 06:41:38;;;;;;;30.50;18.05;;;4.50;99.90;;;;;;2099776;28;20524;-71
2022/01/25 06:42:39;;;;;;;33.53;18.73;;;4.50;99.90;;;;;;2102665;28;20037;-72
2022/01/25 06:43:40;;;;;;;29.85;18.33;;;4.50;99.90;;;;;;2103984;28;20078;-72
2022/01/25 06:44:41;;;;;;;31.63;18.42;;;4.50;99.90;;;;;;2095538;28;20037;-72
2022/01/25 06:45:44;;;;;;;29.75;18.02;;;4.50;99.90;;;;;;2090091;28;20060;-71
2022/01/25 06:46:46;;;;;;;33.00;18.35;;;4.60;99.90;;;;;;2096953;28;20043;-72
2022/01/25 06:47:48;;;;;;;32.20;17.70;;;4.60;99.90;;;;;;2087931;28;20045;-72
2022/01/25 06:48:49;;;;;;;27.67;17.08;;;4.50;99.90;;;;;;2088778;28;20056;-72
2022/01/25 06:49:49;;;;;;;27.98;16.77;;;4.50;99.90;;;;;;2079682;28;20022;-72
2022/01/25 06:50:50;;;;;;;27.60;16.88;;;4.50;99.90;;;;;;2085426;28;20049;-72
2022/01/25 06:51:51;;;;;;;29.35;17.35;;;4.50;99.90;;;;;;2104463;28;20041;-70
2022/01/25 06:52:52;;;;;;;33.70;17.90;;;4.60;99.90;;;;;;2087054;28;20044;-71
2022/01/25 06:53:52;;;;;;;30.50;18.02;;;4.50;99.90;;;;;;2087172;28;20105;-70
2022/01/25 06:54:53;;;;;;;30.88;18.17;;;4.50;99.90;;;;;;2103265;28;20126;-70
2022/01/25 06:55:54;;;;;;;31.92;19.13;;;4.50;99.90;;;;;;2103281;28;20107;-70
2022/01/25 06:56:55;;;;;;;32.60;18.55;;;4.50;99.90;;;;;;2102763;28;20028;-70
2022/01/25 06:57:55;;;;;;;29.58;18.30;;;4.50;99.90;;;;;;2093183;28;20455;-70
2022/01/25 06:58:56;;;;;;;32.60;18.77;;;4.50;99.90;;;;;;2094074;28;20108;-70
2022/01/25 06:59:57;;;;;;;31.45;18.58;;;4.50;99.90;;;;;;2102952;28;20032;-69